createdAt,value
2022-07-31T00:01:21.213Z,97718.66
2022-07-31T00:03:47.844Z,97716.03
2022-07-31T00:06:14.460Z,97719.47
2022-07-31T00:08:41.002Z,97726.38
2022-07-31T00:11:07.651Z,97715.19
2022-07-31T00:13:57.404Z,97721.22
2022-07-31T00:16:20.741Z,97722.03
2022-07-31T00:18:47.329Z,97703.91
2022-07-31T00:21:14.103Z,97720.34
2022-07-31T00:23:41.155Z,97706.63
2022-07-31T00:26:07.880Z,97705.78
2022-07-31T00:28:34.456Z,97706.63
2022-07-31T00:31:01.039Z,97707.47
2022-07-31T00:33:27.580Z,97715.22
2022-07-31T00:35:54.135Z,97710.06
2022-07-31T00:38:28.052Z,97710.91
2022-07-31T00:40:54.697Z,97698.88
2022-07-31T00:43:21.288Z,97705.78
2022-07-31T00:45:51.917Z,97699.72
2022-07-31T00:48:25.466Z,97698.03
2022-07-31T00:50:52.124Z,97702.31
2022-07-31T00:53:18.656Z,97694.53
2022-07-31T00:55:51.196Z,97695.47
2022-07-31T00:58:18.795Z,97701.44
2022-07-31T01:00:45.487Z,97712.59
2022-07-31T01:03:12.044Z,97715.19
2022-07-31T01:05:38.588Z,97700.50
2022-07-31T01:08:05.358Z,97708.31
2022-07-31T01:10:52.810Z,97716.88
2022-07-31T01:13:24.489Z,97690.09
2022-07-31T01:15:51.064Z,97710.03
2022-07-31T01:18:17.980Z,97708.31
2022-07-31T01:20:44.656Z,97704.88
2022-07-31T01:23:17.068Z,97710.00
2022-07-31T01:25:46.553Z,97710.00
2022-07-31T01:28:22.183Z,97707.44
2022-07-31T01:31:17.148Z,97712.56
2022-07-31T01:33:48.276Z,97717.72
2022-07-31T01:36:17.913Z,97709.13
2022-07-31T01:38:45.917Z,97697.00
2022-07-31T01:41:13.262Z,97708.31
2022-07-31T01:43:40.859Z,97712.56
2022-07-31T01:46:09.449Z,97715.16
2022-07-31T01:48:36.067Z,97715.16
2022-07-31T01:51:02.905Z,97716.84
2022-07-31T01:53:31.326Z,97704.88
2022-07-31T01:56:03.677Z,97710.00
2022-07-31T01:58:33.897Z,97697.81
2022-07-31T02:01:00.498Z,97720.28
2022-07-31T02:03:43.468Z,97711.69
2022-07-31T02:06:16.581Z,97711.69
2022-07-31T02:08:45.211Z,97714.28
2022-07-31T02:11:14.010Z,97723.72
2022-07-31T02:13:40.615Z,97711.66
2022-07-31T02:16:07.156Z,97719.38
2022-07-31T02:18:34.314Z,97719.41
2022-07-31T02:21:00.867Z,97720.25
2022-07-31T02:23:27.380Z,97722.00
2022-07-31T02:25:53.935Z,97708.97
2022-07-31T02:28:20.561Z,97719.34
2022-07-31T02:30:47.293Z,97699.59
2022-07-31T02:33:16.287Z,97704.75
2022-07-31T02:35:45.418Z,97721.13
2022-07-31T02:38:22.221Z,97710.84
2022-07-31T02:40:50.637Z,97722.84
2022-07-31T02:43:17.180Z,97709.03
2022-07-31T02:45:43.741Z,97717.69
2022-07-31T02:48:10.327Z,97720.28
2022-07-31T02:50:37.814Z,97723.72
2022-07-31T02:53:04.395Z,97719.34
2022-07-31T02:55:30.930Z,97717.72
2022-07-31T02:57:57.476Z,97713.47
2022-07-31T03:00:26.982Z,97716.03
2022-07-31T03:02:54.294Z,97708.31
2022-07-31T03:05:21.259Z,97710.88
2022-07-31T03:07:47.847Z,97709.13
2022-07-31T03:10:14.623Z,97702.19
2022-07-31T03:12:42.608Z,97703.16
2022-07-31T03:15:10.157Z,97711.69
2022-07-31T03:17:40.749Z,97711.69
2022-07-31T03:20:09.178Z,97707.38
2022-07-31T03:22:35.771Z,97715.16
2022-07-31T03:25:04.009Z,97708.28
2022-07-31T03:27:30.547Z,97706.56
2022-07-31T03:29:57.068Z,97706.56
2022-07-31T03:32:23.616Z,97706.56
2022-07-31T03:34:50.152Z,97703.13
2022-07-31T03:37:16.704Z,97716.00
2022-07-31T03:39:43.431Z,97714.16
2022-07-31T03:42:13.639Z,97713.44
2022-07-31T03:44:45.909Z,97710.84
2022-07-31T03:47:12.475Z,97704.75
2022-07-31T03:49:39.152Z,97714.25
2022-07-31T03:52:10.066Z,97715.13
2022-07-31T03:54:38.414Z,97694.44
2022-07-31T03:57:04.953Z,97705.63
2022-07-31T03:59:34.768Z,97707.41
2022-07-31T04:02:09.722Z,97692.66
2022-07-31T04:04:37.523Z,97710.84
2022-07-31T04:07:05.132Z,97703.13
2022-07-31T04:09:31.965Z,97704.84
2022-07-31T04:11:58.533Z,97712.56
2022-07-31T04:14:25.083Z,97703.09
2022-07-31T04:16:51.644Z,97703.84
2022-07-31T04:19:18.168Z,97704.84
2022-07-31T04:21:44.719Z,97706.53
2022-07-31T04:24:13.670Z,97701.34
2022-07-31T04:26:40.220Z,97715.13
2022-07-31T04:29:06.790Z,97704.78
2022-07-31T04:31:33.369Z,97720.28
2022-07-31T04:33:59.897Z,97709.03
2022-07-31T04:36:29.920Z,97715.94
2022-07-31T04:38:57.903Z,97727.09
2022-07-31T04:41:24.506Z,97726.25
2022-07-31T04:43:51.060Z,97722.81
2022-07-31T04:46:18.079Z,97711.59
2022-07-31T04:48:45.107Z,97721.09
2022-07-31T04:51:21.746Z,97721.94
2022-07-31T04:53:50.105Z,97716.78
2022-07-31T04:56:36.027Z,97723.69
2022-07-31T04:59:05.869Z,97723.69
2022-07-31T05:01:32.791Z,97728.84
2022-07-31T05:03:59.503Z,97717.66
2022-07-31T05:06:37.980Z,97718.53
2022-07-31T05:09:09.018Z,97721.13
2022-07-31T05:11:37.308Z,97717.69
2022-07-31T05:14:05.187Z,97720.28
2022-07-31T05:16:32.011Z,97722.84
2022-07-31T05:18:58.684Z,97725.41
2022-07-31T05:21:27.152Z,97722.84
2022-07-31T05:23:54.297Z,97722.84
2022-07-31T05:26:20.934Z,97718.56
2022-07-31T05:28:49.455Z,97715.06
2022-07-31T05:31:16.438Z,97720.28
2022-07-31T05:33:43.378Z,97707.34
2022-07-31T05:36:10.003Z,97715.97
2022-07-31T05:38:36.588Z,97716.78
2022-07-31T05:41:03.139Z,97715.13
2022-07-31T05:43:29.731Z,97716.81
2022-07-31T05:45:56.333Z,97706.50
2022-07-31T05:48:23.265Z,97715.09
2022-07-31T05:50:50.331Z,97715.94
2022-07-31T05:53:17.032Z,97723.63
2022-07-31T05:55:47.039Z,97718.47
2022-07-31T05:58:16.747Z,97729.63
2022-07-31T06:00:44.430Z,97725.34
2022-07-31T06:03:12.486Z,97729.47
2022-07-31T06:05:39.990Z,97729.59
2022-07-31T06:08:06.664Z,97730.47
2022-07-31T06:10:36.085Z,97738.22
2022-07-31T06:13:02.920Z,97737.31
2022-07-31T06:15:33.150Z,97740.75
2022-07-31T06:18:02.472Z,97743.28
2022-07-31T06:20:29.077Z,97739.81
2022-07-31T06:22:55.657Z,97750.09
2022-07-31T06:25:22.291Z,97737.22
2022-07-31T06:27:52.875Z,97734.63
2022-07-31T06:30:25.854Z,97739.78
2022-07-31T06:32:52.484Z,97736.38
2022-07-31T06:35:19.049Z,97737.16
2022-07-31T06:37:45.660Z,97640.88
2022-07-31T06:40:12.875Z,97748.38
2022-07-31T06:42:39.455Z,97742.34
2022-07-31T06:45:06.359Z,97746.63
2022-07-31T06:47:32.913Z,97739.78
2022-07-31T06:49:59.449Z,97749.22
2022-07-31T06:52:26.002Z,97746.66
2022-07-31T06:54:52.574Z,97749.22
2022-07-31T06:57:19.176Z,97746.66
2022-07-31T06:59:45.702Z,97743.22
2022-07-31T07:02:12.259Z,97742.31
2022-07-31T07:04:56.220Z,97748.34
2022-07-31T07:07:25.458Z,97740.63
2022-07-31T07:09:58.568Z,97744.06
2022-07-31T07:12:25.190Z,97749.19
2022-07-31T07:14:53.519Z,97748.28
2022-07-31T07:17:20.084Z,97753.50
2022-07-31T07:19:46.757Z,97754.38
2022-07-31T07:22:30.047Z,97750.91
2022-07-31T07:24:59.922Z,97749.22
2022-07-31T07:27:26.485Z,97737.09
2022-07-31T07:29:53.037Z,97746.66
2022-07-31T07:32:19.604Z,97747.47
2022-07-31T07:34:46.171Z,97750.94
2022-07-31T07:37:12.708Z,97746.66
2022-07-31T07:39:39.237Z,97750.06
2022-07-31T07:42:06.228Z,97746.66
2022-07-31T07:44:32.986Z,97741.50
2022-07-31T07:46:59.542Z,97747.50
2022-07-31T07:49:26.260Z,97738.94
2022-07-31T07:51:59.013Z,97736.38
2022-07-31T07:54:26.783Z,97741.50
2022-07-31T07:56:54.920Z,97733.81
2022-07-31T07:59:21.640Z,97730.34
2022-07-31T08:01:48.242Z,97726.09
2022-07-31T08:04:14.766Z,97724.34
2022-07-31T08:06:41.296Z,97731.22
2022-07-31T08:09:07.880Z,97720.94
2022-07-31T08:11:34.477Z,97713.22
2022-07-31T08:14:01.018Z,97711.50
2022-07-31T08:16:27.571Z,97715.81
2022-07-31T08:18:54.860Z,97706.31
2022-07-31T08:21:21.865Z,97714.09
2022-07-31T08:23:48.444Z,97711.53
2022-07-31T08:26:14.965Z,97718.41
2022-07-31T08:28:41.577Z,97714.13
2022-07-31T08:31:16.796Z,97709.84
2022-07-31T08:33:43.432Z,97711.53
2022-07-31T08:36:10.064Z,97712.41
2022-07-31T08:38:36.938Z,97714.13
2022-07-31T08:41:03.494Z,97704.69
2022-07-31T08:44:00.279Z,97704.72
2022-07-31T08:46:17.365Z,97697.88
2022-07-31T08:48:44.085Z,97704.75
2022-07-31T08:51:13.827Z,97700.50
2022-07-31T08:53:40.450Z,97687.50
2022-07-31T08:56:07.972Z,97693.63
2022-07-31T08:58:39.021Z,97686.72
2022-07-31T09:01:06.749Z,97693.66
2022-07-31T09:03:34.668Z,97683.34
2022-07-31T09:06:01.208Z,97680.78
2022-07-31T09:08:28.012Z,97680.78
2022-07-31T09:11:07.346Z,97686.81
2022-07-31T09:13:36.733Z,97682.53
2022-07-31T09:16:03.619Z,97678.25
2022-07-31T09:18:30.197Z,97672.19
2022-07-31T09:21:01.966Z,97679.13
2022-07-31T09:23:29.063Z,97673.09
2022-07-31T09:25:59.763Z,97678.25
2022-07-31T09:28:32.920Z,97673.97
2022-07-31T09:30:59.455Z,97673.97
2022-07-31T09:33:28.142Z,97667.97
2022-07-31T09:35:54.855Z,97666.25
2022-07-31T09:38:21.464Z,97648.94
2022-07-31T09:40:56.943Z,97655.13
2022-07-31T09:43:24.744Z,97649.97
2022-07-31T09:46:00.007Z,97644.84
2022-07-31T09:48:28.749Z,97648.28
2022-07-31T09:51:03.630Z,97649.97
2022-07-31T09:53:46.997Z,97650.88
2022-07-31T09:56:14.779Z,97626.75
2022-07-31T09:58:42.164Z,97654.34
2022-07-31T10:01:12.443Z,97638.94
2022-07-31T10:03:39.970Z,97633.75
2022-07-31T10:06:06.984Z,97633.78
2022-07-31T10:08:37.191Z,97647.50
2022-07-31T10:11:04.452Z,97632.94
2022-07-31T10:13:31.071Z,97609.78
2022-07-31T10:15:57.703Z,97613.19
2022-07-31T10:18:35.668Z,97608.09
2022-07-31T10:21:05.366Z,97620.09
2022-07-31T10:23:33.920Z,97611.50
2022-07-31T10:26:01.364Z,97614.94
2022-07-31T10:28:31.401Z,97606.34
2022-07-31T10:30:58.122Z,97618.38
2022-07-31T10:33:43.432Z,97603.66
2022-07-31T10:36:34.798Z,97608.94
2022-07-31T10:39:14.866Z,97603.78
2022-07-31T10:42:04.978Z,97603.78
2022-07-31T10:44:45.600Z,97583.03
2022-07-31T10:47:15.973Z,97598.66
2022-07-31T10:49:48.372Z,97603.78
2022-07-31T10:52:31.512Z,97598.66
2022-07-31T10:54:58.372Z,97598.63
2022-07-31T10:57:29.548Z,97598.63
2022-07-31T10:59:56.122Z,97592.63
2022-07-31T11:02:35.537Z,97584.06
2022-07-31T11:05:07.975Z,97586.63
2022-07-31T11:07:34.500Z,97575.38
2022-07-31T11:10:17.361Z,97579.78
2022-07-31T11:12:44.145Z,97585.78
2022-07-31T11:15:23.708Z,97578.94
2022-07-31T11:18:17.374Z,97582.38
2022-07-31T11:20:36.976Z,97582.41
2022-07-31T11:23:05.386Z,97577.25
2022-07-31T11:25:34.138Z,97581.50
2022-07-31T11:28:14.754Z,97585.81
2022-07-31T11:31:00.721Z,97572.97
2022-07-31T11:33:42.997Z,97577.28
2022-07-31T11:36:09.713Z,97575.56
2022-07-31T11:38:36.447Z,97574.72
2022-07-31T11:41:05.852Z,97582.41
2022-07-31T11:43:34.522Z,97563.44
2022-07-31T11:46:01.177Z,97577.28
2022-07-31T11:48:36.015Z,97567.00
2022-07-31T11:51:05.705Z,97572.13
2022-07-31T11:53:39.475Z,97575.56
2022-07-31T11:56:06.147Z,97582.44
2022-07-31T11:58:33.805Z,97567.75
2022-07-31T12:01:01.603Z,97564.44
2022-07-31T12:03:32.848Z,97567.88
2022-07-31T12:05:59.712Z,97562.69
2022-07-31T12:08:26.601Z,97560.94
2022-07-31T12:10:54.102Z,97560.13
2022-07-31T12:13:21.193Z,97561.00
2022-07-31T12:16:14.023Z,97554.97
2022-07-31T12:18:58.659Z,97551.56
2022-07-31T12:21:35.455Z,97552.41
2022-07-31T12:24:02.123Z,97560.13
2022-07-31T12:26:30.207Z,97562.69
2022-07-31T12:29:07.710Z,97552.44
2022-07-31T12:31:47.860Z,97554.16
2022-07-31T12:34:29.019Z,97553.31
2022-07-31T12:36:59.092Z,97550.72
2022-07-31T12:39:25.673Z,97549.03
2022-07-31T12:42:30.913Z,97553.25
2022-07-31T12:44:59.276Z,97548.13
2022-07-31T12:47:30.250Z,97545.53
2022-07-31T12:49:57.433Z,97538.69
2022-07-31T12:52:24.110Z,97536.13
2022-07-31T12:54:50.671Z,97534.34
2022-07-31T12:57:17.228Z,97529.22
2022-07-31T12:59:43.768Z,97531.78
2022-07-31T13:02:10.370Z,97528.38
2022-07-31T13:04:36.904Z,97527.50
2022-07-31T13:07:03.791Z,97521.47
2022-07-31T13:09:30.411Z,97522.34
2022-07-31T13:11:58.059Z,97514.63
2022-07-31T13:14:24.806Z,97518.88
2022-07-31T13:16:52.517Z,97516.31
2022-07-31T13:19:19.208Z,97527.44
2022-07-31T13:21:49.336Z,97514.59
2022-07-31T13:24:19.522Z,97512.03
2022-07-31T13:26:46.484Z,97514.59
2022-07-31T13:29:13.062Z,97511.13
2022-07-31T13:31:39.787Z,97500.81
2022-07-31T13:34:06.579Z,97509.44
2022-07-31T13:36:38.580Z,97500.78
2022-07-31T13:39:06.428Z,97505.16
2022-07-31T13:41:35.075Z,97497.44
2022-07-31T13:44:01.862Z,97498.28
2022-07-31T13:46:28.553Z,97499.13
2022-07-31T13:48:56.124Z,97487.09
2022-07-31T13:51:28.497Z,97475.13
2022-07-31T13:53:55.599Z,97484.56
2022-07-31T13:56:39.386Z,97475.13
2022-07-31T13:59:08.983Z,97480.25
2022-07-31T14:02:03.364Z,97471.72
2022-07-31T14:04:23.925Z,97486.25
2022-07-31T14:06:50.667Z,97475.03
2022-07-31T14:09:18.427Z,97473.41
2022-07-31T14:11:45.036Z,97468.22
2022-07-31T14:14:12.303Z,97458.81
2022-07-31T14:16:39.415Z,97459.66
2022-07-31T14:19:06.015Z,97463.97
2022-07-31T14:21:34.182Z,97457.81
2022-07-31T14:24:00.777Z,97472.50
2022-07-31T14:26:27.323Z,97465.66
2022-07-31T14:28:53.983Z,97465.66
2022-07-31T14:31:20.527Z,97457.91
2022-07-31T14:33:47.164Z,97460.53
2022-07-31T14:36:13.868Z,97464.78
2022-07-31T14:38:40.415Z,97457.94
2022-07-31T14:41:07.191Z,97457.06
2022-07-31T14:43:33.953Z,97454.53
2022-07-31T14:46:00.556Z,97451.97
2022-07-31T14:48:27.408Z,97441.66
2022-07-31T14:50:54.164Z,97442.56
2022-07-31T14:53:20.745Z,97446.84
2022-07-31T14:55:47.299Z,97442.59
2022-07-31T14:58:13.915Z,97439.13
2022-07-31T15:00:40.456Z,97430.59
2022-07-31T15:03:07.384Z,97429.72
2022-07-31T15:06:49.373Z,97427.16
2022-07-31T15:08:20.530Z,97428.88
2022-07-31T15:10:47.077Z,97390.91
2022-07-31T15:13:13.608Z,97428.03
2022-07-31T15:15:40.224Z,97421.16
2022-07-31T15:18:06.772Z,97424.59
2022-07-31T15:20:35.324Z,97421.16
2022-07-31T15:23:02.065Z,97420.31
2022-07-31T15:25:28.809Z,97414.31
2022-07-31T15:27:55.344Z,97424.63
2022-07-31T15:30:22.602Z,97422.06
2022-07-31T15:32:49.148Z,97417.78
2022-07-31T15:35:15.685Z,97417.78
2022-07-31T15:37:44.197Z,97421.19
2022-07-31T15:40:12.273Z,97416.06
2022-07-31T15:42:42.999Z,97419.50
2022-07-31T15:45:11.031Z,97419.50
2022-07-31T15:47:37.736Z,97420.38
2022-07-31T15:50:04.847Z,97417.81
2022-07-31T15:52:31.383Z,97418.63
2022-07-31T15:54:57.943Z,97413.50
2022-07-31T15:57:24.692Z,97409.19
2022-07-31T15:59:51.686Z,97417.81
2022-07-31T16:02:18.190Z,97411.78
2022-07-31T16:04:51.504Z,97413.50
2022-07-31T16:08:30.360Z,97405.78
2022-07-31T16:10:15.601Z,97405.78
2022-07-31T16:12:44.280Z,97415.25
2022-07-31T16:15:12.238Z,97410.09
2022-07-31T16:17:38.936Z,97409.22
2022-07-31T16:20:12.778Z,97405.78
2022-07-31T16:22:40.103Z,97404.94
2022-07-31T16:25:07.365Z,97406.66
2022-07-31T16:27:34.099Z,97403.19
2022-07-31T16:30:02.054Z,97409.19
2022-07-31T16:32:29.733Z,97410.91
2022-07-31T16:35:00.647Z,97403.19
2022-07-31T16:37:52.319Z,97403.19
2022-07-31T16:40:28.958Z,97398.91
2022-07-31T16:43:02.010Z,97400.63
2022-07-31T16:45:29.629Z,97395.47
2022-07-31T16:47:56.304Z,97393.75
2022-07-31T16:50:23.023Z,97390.31
2022-07-31T16:52:54.136Z,97392.06
2022-07-31T16:55:21.675Z,97389.47
2022-07-31T16:58:11.025Z,97383.47
2022-07-31T17:00:38.408Z,97381.78
2022-07-31T17:03:05.119Z,97381.75
2022-07-31T17:05:31.681Z,97381.78
2022-07-31T17:07:58.239Z,97375.75
2022-07-31T17:10:24.848Z,97369.72
2022-07-31T17:12:53.710Z,97370.63
2022-07-31T17:15:20.412Z,97367.19
2022-07-31T17:17:46.958Z,97367.19
2022-07-31T17:20:13.656Z,97368.06
2022-07-31T17:22:41.688Z,97364.66
2022-07-31T17:25:10.062Z,97358.59
2022-07-31T17:27:36.612Z,97350.88
2022-07-31T17:30:03.503Z,97369.00
2022-07-31T17:32:32.147Z,97368.16
2022-07-31T17:34:58.715Z,97366.47
2022-07-31T17:37:25.322Z,97362.13
2022-07-31T17:39:56.231Z,97363.03
2022-07-31T17:42:24.552Z,97368.19
2022-07-31T17:44:54.985Z,97376.78
2022-07-31T17:47:22.750Z,97369.88
2022-07-31T17:49:49.295Z,97363.03
2022-07-31T17:52:15.893Z,97373.34
2022-07-31T17:54:42.421Z,97374.22
2022-07-31T17:57:08.967Z,97377.59
2022-07-31T17:59:35.939Z,97380.19
2022-07-31T18:02:05.699Z,97375.91
2022-07-31T18:04:33.973Z,97376.75
2022-07-31T18:07:00.985Z,97375.88
2022-07-31T18:09:27.660Z,97383.59
2022-07-31T18:11:54.448Z,97381.03
2022-07-31T18:14:21.032Z,97375.03
2022-07-31T18:16:51.328Z,97387.03
2022-07-31T18:19:18.300Z,97383.59
2022-07-31T18:21:44.862Z,97364.66
2022-07-31T18:24:11.390Z,97375.88
2022-07-31T18:26:37.971Z,97375.88
2022-07-31T18:29:04.724Z,97379.31
2022-07-31T18:31:34.208Z,97377.59
2022-07-31T18:34:05.345Z,97379.31
2022-07-31T18:36:32.764Z,97376.75
2022-07-31T18:38:59.452Z,97377.59
2022-07-31T18:41:26.103Z,97378.47
2022-07-31T18:43:52.632Z,97377.59
2022-07-31T18:46:20.185Z,97377.59
2022-07-31T18:48:48.169Z,97379.31
2022-07-31T18:51:16.417Z,97376.75
2022-07-31T18:53:43.026Z,97382.72
2022-07-31T18:56:09.711Z,97381.88
2022-07-31T18:58:36.244Z,97383.59
2022-07-31T19:01:02.900Z,97384.47
2022-07-31T19:03:30.923Z,97383.59
2022-07-31T19:05:58.567Z,97384.47
2022-07-31T19:08:25.212Z,97392.19
2022-07-31T19:10:53.470Z,97381.00
2022-07-31T19:13:20.890Z,97387.03
2022-07-31T19:15:51.616Z,97388.75
2022-07-31T19:18:18.500Z,97392.16
2022-07-31T19:20:58.852Z,97393.88
2022-07-31T19:23:38.808Z,97398.16
2022-07-31T19:26:05.389Z,97398.19
2022-07-31T19:28:32.552Z,97397.31
2022-07-31T19:30:59.297Z,97399.03
2022-07-31T19:33:25.902Z,97393.88
2022-07-31T19:35:56.825Z,97406.75
2022-07-31T19:38:27.468Z,97394.75
2022-07-31T19:40:54.144Z,97394.75
2022-07-31T19:43:20.689Z,97393.88
2022-07-31T19:46:00.345Z,97391.31
2022-07-31T19:48:33.906Z,97393.00
2022-07-31T19:51:00.467Z,97399.91
2022-07-31T19:53:27.002Z,97401.59
2022-07-31T19:55:53.544Z,97405.06
2022-07-31T19:58:21.208Z,97399.03
2022-07-31T20:00:47.771Z,97399.91
2022-07-31T20:03:14.409Z,97397.34
2022-07-31T20:05:41.110Z,97398.19
2022-07-31T20:08:07.697Z,97404.19
2022-07-31T20:10:34.230Z,97288.47
2022-07-31T20:13:00.811Z,97396.47
2022-07-31T20:15:27.553Z,97399.91
2022-07-31T20:18:27.486Z,97402.47
2022-07-31T20:21:06.896Z,97398.16
2022-07-31T20:23:38.263Z,97402.47
2022-07-31T20:26:09.134Z,97399.00
2022-07-31T20:28:35.982Z,97403.31
2022-07-31T20:31:02.561Z,97395.59
2022-07-31T20:33:29.122Z,97400.72
2022-07-31T20:35:55.675Z,97394.75
2022-07-31T20:38:22.447Z,97386.16
2022-07-31T20:40:53.420Z,97390.44
2022-07-31T20:43:26.260Z,97390.41
2022-07-31T20:45:53.325Z,97390.41
2022-07-31T20:48:21.859Z,97392.16
2022-07-31T20:50:48.727Z,97382.66
2022-07-31T20:53:19.476Z,97382.72
2022-07-31T20:55:49.108Z,97387.88
2022-07-31T20:58:16.280Z,97386.19
2022-07-31T21:00:42.844Z,97380.19
2022-07-31T21:03:09.542Z,97385.31
2022-07-31T21:05:36.083Z,97381.06
2022-07-31T21:08:02.640Z,97387.06
2022-07-31T21:10:29.960Z,97391.34
2022-07-31T21:12:56.780Z,97379.34
2022-07-31T21:15:44.050Z,97381.06
2022-07-31T21:18:14.133Z,97378.47
2022-07-31T21:20:50.205Z,97376.75
2022-07-31T21:23:19.479Z,97375.03
2022-07-31T21:25:46.296Z,97375.03
2022-07-31T21:28:13.000Z,97374.19
2022-07-31T21:30:39.643Z,97364.72
2022-07-31T21:33:06.823Z,97350.91
2022-07-31T21:35:36.713Z,97365.59
2022-07-31T21:38:04.376Z,97363.00
2022-07-31T21:40:31.866Z,97354.34
2022-07-31T21:42:58.727Z,97357.84
2022-07-31T21:45:29.072Z,97363.88
2022-07-31T21:48:10.630Z,97357.84
2022-07-31T21:50:46.436Z,97367.28
2022-07-31T21:53:13.303Z,97349.25
2022-07-31T21:55:39.953Z,97350.09
2022-07-31T21:58:06.948Z,97362.13
2022-07-31T22:00:36.717Z,97369.03
2022-07-31T22:03:03.304Z,97368.13
2022-07-31T22:05:48.996Z,97371.56
2022-07-31T22:08:15.854Z,97371.56
2022-07-31T22:10:42.407Z,97374.16
2022-07-31T22:13:09.110Z,97369.84
2022-07-31T22:15:50.516Z,97371.56
2022-07-31T22:18:22.310Z,97361.28
2022-07-31T22:20:49.051Z,97370.72
2022-07-31T22:23:15.731Z,97367.25
2022-07-31T22:25:42.292Z,97366.34
2022-07-31T22:28:09.660Z,97361.22
2022-07-31T22:30:36.309Z,97364.69
2022-07-31T22:33:03.087Z,97361.22
2022-07-31T22:35:30.574Z,97361.25
2022-07-31T22:37:57.168Z,97364.69
2022-07-31T22:40:24.625Z,97364.69
2022-07-31T22:42:57.446Z,97366.41
2022-07-31T22:45:24.697Z,97366.41
2022-07-31T22:47:51.356Z,97368.13
2022-07-31T22:50:18.138Z,97369.00
2022-07-31T22:52:44.735Z,97372.41
2022-07-31T22:55:11.675Z,97372.41
2022-07-31T22:57:40.730Z,97375.00
2022-07-31T23:00:09.031Z,97369.00
2022-07-31T23:02:35.662Z,97364.69
2022-07-31T23:05:02.363Z,97369.00
2022-07-31T23:07:28.884Z,97364.69
2022-07-31T23:09:55.504Z,97366.41
2022-07-31T23:12:22.096Z,97370.69
2022-07-31T23:14:54.860Z,97369.00
2022-07-31T23:17:23.137Z,97371.56
2022-07-31T23:19:54.158Z,97371.56
2022-07-31T23:22:33.054Z,97378.41
2022-07-31T23:25:01.900Z,97372.38
2022-07-31T23:27:28.482Z,97376.69
2022-07-31T23:29:55.023Z,97372.41
2022-07-31T23:32:21.576Z,97377.53
2022-07-31T23:34:48.131Z,97376.69
2022-07-31T23:37:14.810Z,97379.28
2022-07-31T23:39:41.407Z,97379.28
2022-07-31T23:42:26.704Z,97376.69
2022-07-31T23:44:53.326Z,97372.41
2022-07-31T23:47:19.895Z,97370.69
2022-07-31T23:49:47.739Z,97382.66
2022-07-31T23:52:14.338Z,97372.38
2022-07-31T23:54:40.926Z,97376.69
2022-07-31T23:57:07.476Z,97375.81
2022-07-31T23:59:34.002Z,97366.41
